sensor_id;sensor_type;location;lat;lon;timestamp;temperature;humidity
38480;DHT22;62333;51.980;5.934;2024-03-22T00:00:06;15.20;73.00
38480;DHT22;62333;51.980;5.934;2024-03-22T00:02:37;15.20;73.00
38480;DHT22;62333;51.980;5.934;2024-03-22T00:05:03;15.30;73.00
38480;DHT22;62333;51.980;5.934;2024-03-22T00:07:29;15.30;72.90
38480;DHT22;62333;51.980;5.934;2024-03-22T00:09:54;15.30;72.90
38480;DHT22;62333;51.980;5.934;2024-03-22T00:12:20;15.30;73.10
38480;DHT22;62333;51.980;5.934;2024-03-22T00:14:46;15.30;73.30
38480;DHT22;62333;51.980;5.934;2024-03-22T00:17:11;15.30;73.50
38480;DHT22;62333;51.980;5.934;2024-03-22T00:19:37;15.30;74.30
38480;DHT22;62333;51.980;5.934;2024-03-22T00:22:02;15.30;73.70
38480;DHT22;62333;51.980;5.934;2024-03-22T00:24:28;15.30;73.90
38480;DHT22;62333;51.980;5.934;2024-03-22T00:26:54;15.30;74.20
38480;DHT22;62333;51.980;5.934;2024-03-22T00:29:19;15.30;74.30
38480;DHT22;62333;51.980;5.934;2024-03-22T00:31:45;15.30;74.50
38480;DHT22;62333;51.980;5.934;2024-03-22T00:34:10;15.30;74.60
38480;DHT22;62333;51.980;5.934;2024-03-22T00:36:36;15.30;74.60
38480;DHT22;62333;51.980;5.934;2024-03-22T00:39:02;15.30;74.90
38480;DHT22;62333;51.980;5.934;2024-03-22T00:41:29;15.20;75.20
38480;DHT22;62333;51.980;5.934;2024-03-22T00:43:55;15.20;75.40
38480;DHT22;62333;51.980;5.934;2024-03-22T00:46:21;15.20;75.60
38480;DHT22;62333;51.980;5.934;2024-03-22T00:48:46;15.20;75.60
38480;DHT22;62333;51.980;5.934;2024-03-22T00:51:12;15.20;75.70
38480;DHT22;62333;51.980;5.934;2024-03-22T00:53:37;15.20;75.80
38480;DHT22;62333;51.980;5.934;2024-03-22T00:56:03;15.20;76.00
38480;DHT22;62333;51.980;5.934;2024-03-22T00:58:29;15.20;75.90
38480;DHT22;62333;51.980;5.934;2024-03-22T01:00:55;15.20;76.00
38480;DHT22;62333;51.980;5.934;2024-03-22T01:03:21;15.20;76.10
38480;DHT22;62333;51.980;5.934;2024-03-22T01:05:47;15.20;76.20
38480;DHT22;62333;51.980;5.934;2024-03-22T01:08:12;15.20;76.10
38480;DHT22;62333;51.980;5.934;2024-03-22T01:10:38;15.20;76.30
38480;DHT22;62333;51.980;5.934;2024-03-22T01:13:04;15.20;76.30
38480;DHT22;62333;51.980;5.934;2024-03-22T01:15:30;15.20;76.50
38480;DHT22;62333;51.980;5.934;2024-03-22T01:17:55;15.20;76.50
38480;DHT22;62333;51.980;5.934;2024-03-22T01:20:21;15.20;76.50
38480;DHT22;62333;51.980;5.934;2024-03-22T01:22:47;15.20;76.60
38480;DHT22;62333;51.980;5.934;2024-03-22T01:25:12;15.20;76.70
38480;DHT22;62333;51.980;5.934;2024-03-22T01:27:38;15.20;76.80
38480;DHT22;62333;51.980;5.934;2024-03-22T01:30:04;15.20;76.80
38480;DHT22;62333;51.980;5.934;2024-03-22T01:32:30;15.20;76.80
38480;DHT22;62333;51.980;5.934;2024-03-22T01:34:57;15.20;76.70
38480;DHT22;62333;51.980;5.934;2024-03-22T01:37:23;15.30;76.80
38480;DHT22;62333;51.980;5.934;2024-03-22T01:39:48;15.30;76.80
38480;DHT22;62333;51.980;5.934;2024-03-22T01:42:14;15.30;76.80
38480;DHT22;62333;51.980;5.934;2024-03-22T01:44:39;15.30;76.90
38480;DHT22;62333;51.980;5.934;2024-03-22T01:47:05;15.30;77.00
38480;DHT22;62333;51.980;5.934;2024-03-22T01:49:31;15.30;77.10
38480;DHT22;62333;51.980;5.934;2024-03-22T01:51:57;15.30;77.30
38480;DHT22;62333;51.980;5.934;2024-03-22T01:54:22;15.30;77.30
38480;DHT22;62333;51.980;5.934;2024-03-22T01:56:48;15.20;77.40
38480;DHT22;62333;51.980;5.934;2024-03-22T01:59:14;15.30;77.50
38480;DHT22;62333;51.980;5.934;2024-03-22T02:01:40;15.30;77.50
38480;DHT22;62333;51.980;5.934;2024-03-22T02:04:06;15.20;77.60
38480;DHT22;62333;51.980;5.934;2024-03-22T02:06:32;15.20;78.30
38480;DHT22;62333;51.980;5.934;2024-03-22T02:08:58;15.20;77.70
38480;DHT22;62333;51.980;5.934;2024-03-22T02:11:25;15.20;77.60
38480;DHT22;62333;51.980;5.934;2024-03-22T02:13:51;15.20;77.80
38480;DHT22;62333;51.980;5.934;2024-03-22T02:16:17;15.20;77.90
38480;DHT22;62333;51.980;5.934;2024-03-22T02:18:43;15.20;78.10
38480;DHT22;62333;51.980;5.934;2024-03-22T02:21:09;15.20;78.20
38480;DHT22;62333;51.980;5.934;2024-03-22T02:23:37;15.20;78.20
38480;DHT22;62333;51.980;5.934;2024-03-22T02:26:04;15.20;78.30
38480;DHT22;62333;51.980;5.934;2024-03-22T02:28:31;15.20;78.30
38480;DHT22;62333;51.980;5.934;2024-03-22T02:30:57;15.20;78.20
38480;DHT22;62333;51.980;5.934;2024-03-22T02:33:23;15.20;78.20
38480;DHT22;62333;51.980;5.934;2024-03-22T02:35:49;15.20;78.20
38480;DHT22;62333;51.980;5.934;2024-03-22T02:38:16;15.20;78.30
38480;DHT22;62333;51.980;5.934;2024-03-22T02:40:43;15.10;79.00
38480;DHT22;62333;51.980;5.934;2024-03-22T02:43:09;15.10;78.30
38480;DHT22;62333;51.980;5.934;2024-03-22T02:45:34;15.20;78.50
38480;DHT22;62333;51.980;5.934;2024-03-22T02:48:00;15.20;78.60
38480;DHT22;62333;51.980;5.934;2024-03-22T02:50:25;15.20;78.70
38480;DHT22;62333;51.980;5.934;2024-03-22T02:52:51;15.10;78.80
38480;DHT22;62333;51.980;5.934;2024-03-22T02:55:17;15.10;78.90
38480;DHT22;62333;51.980;5.934;2024-03-22T02:57:43;15.10;78.70
38480;DHT22;62333;51.980;5.934;2024-03-22T03:00:08;15.10;78.80
38480;DHT22;62333;51.980;5.934;2024-03-22T03:02:34;15.10;79.00
38480;DHT22;62333;51.980;5.934;2024-03-22T03:05:00;15.10;78.80
38480;DHT22;62333;51.980;5.934;2024-03-22T03:07:26;15.10;79.10
38480;DHT22;62333;51.980;5.934;2024-03-22T03:09:53;15.10;79.00
38480;DHT22;62333;51.980;5.934;2024-03-22T03:12:18;15.10;79.00
38480;DHT22;62333;51.980;5.934;2024-03-22T03:14:44;15.10;79.60
38480;DHT22;62333;51.980;5.934;2024-03-22T03:17:10;15.00;79.70
38480;DHT22;62333;51.980;5.934;2024-03-22T03:19:36;15.00;79.80
38480;DHT22;62333;51.980;5.934;2024-03-22T03:22:01;15.00;79.60
38480;DHT22;62333;51.980;5.934;2024-03-22T03:24:27;15.00;79.50
38480;DHT22;62333;51.980;5.934;2024-03-22T03:26:53;15.00;79.60
38480;DHT22;62333;51.980;5.934;2024-03-22T03:29:19;15.00;79.60
38480;DHT22;62333;51.980;5.934;2024-03-22T03:31:44;15.00;79.80
38480;DHT22;62333;51.980;5.934;2024-03-22T03:34:10;15.00;80.10
38480;DHT22;62333;51.980;5.934;2024-03-22T03:36:35;15.00;80.30
38480;DHT22;62333;51.980;5.934;2024-03-22T03:39:02;15.00;80.30
38480;DHT22;62333;51.980;5.934;2024-03-22T03:41:27;14.90;80.30
38480;DHT22;62333;51.980;5.934;2024-03-22T03:43:53;15.00;80.30
38480;DHT22;62333;51.980;5.934;2024-03-22T03:46:18;15.00;80.30
38480;DHT22;62333;51.980;5.934;2024-03-22T03:48:44;15.00;80.70
38480;DHT22;62333;51.980;5.934;2024-03-22T03:51:10;14.90;80.60
38480;DHT22;62333;51.980;5.934;2024-03-22T03:53:35;14.90;80.80
38480;DHT22;62333;51.980;5.934;2024-03-22T03:56:01;14.90;80.70
38480;DHT22;62333;51.980;5.934;2024-03-22T03:58:27;14.90;80.50
38480;DHT22;62333;51.980;5.934;2024-03-22T04:00:52;14.80;80.80
38480;DHT22;62333;51.980;5.934;2024-03-22T04:03:18;14.80;81.10
38480;DHT22;62333;51.980;5.934;2024-03-22T04:05:44;14.80;80.90
38480;DHT22;62333;51.980;5.934;2024-03-22T04:08:10;14.80;81.10
38480;DHT22;62333;51.980;5.934;2024-03-22T04:10:35;14.80;81.20
38480;DHT22;62333;51.980;5.934;2024-03-22T04:13:01;14.80;81.40
38480;DHT22;62333;51.980;5.934;2024-03-22T04:15:27;14.80;81.60
38480;DHT22;62333;51.980;5.934;2024-03-22T04:17:56;14.80;81.60
38480;DHT22;62333;51.980;5.934;2024-03-22T04:20:21;14.80;81.40
38480;DHT22;62333;51.980;5.934;2024-03-22T04:22:47;14.80;81.40
38480;DHT22;62333;51.980;5.934;2024-03-22T04:25:15;14.90;81.40
38480;DHT22;62333;51.980;5.934;2024-03-22T04:27:40;14.90;82.10
38480;DHT22;62333;51.980;5.934;2024-03-22T04:30:06;14.80;81.20
38480;DHT22;62333;51.980;5.934;2024-03-22T04:32:32;14.90;81.10
38480;DHT22;62333;51.980;5.934;2024-03-22T04:34:57;14.80;81.10
38480;DHT22;62333;51.980;5.934;2024-03-22T04:37:23;14.80;81.10
38480;DHT22;62333;51.980;5.934;2024-03-22T04:39:49;14.80;81.20
38480;DHT22;62333;51.980;5.934;2024-03-22T04:42:15;14.80;81.30
38480;DHT22;62333;51.980;5.934;2024-03-22T04:44:41;14.80;81.20
38480;DHT22;62333;51.980;5.934;2024-03-22T04:47:07;14.80;81.10
38480;DHT22;62333;51.980;5.934;2024-03-22T04:49:33;14.80;81.30
38480;DHT22;62333;51.980;5.934;2024-03-22T04:51:58;14.80;81.40
38480;DHT22;62333;51.980;5.934;2024-03-22T04:54:24;14.80;81.40
38480;DHT22;62333;51.980;5.934;2024-03-22T04:56:50;14.80;81.40
38480;DHT22;62333;51.980;5.934;2024-03-22T04:59:15;14.80;81.30
38480;DHT22;62333;51.980;5.934;2024-03-22T05:01:41;14.80;81.40
38480;DHT22;62333;51.980;5.934;2024-03-22T05:04:07;14.80;81.60
38480;DHT22;62333;51.980;5.934;2024-03-22T05:06:33;14.70;81.30
38480;DHT22;62333;51.980;5.934;2024-03-22T05:08:58;14.70;81.60
38480;DHT22;62333;51.980;5.934;2024-03-22T05:11:24;14.70;81.60
38480;DHT22;62333;51.980;5.934;2024-03-22T05:13:50;14.60;81.60
38480;DHT22;62333;51.980;5.934;2024-03-22T05:16:15;14.60;81.70
38480;DHT22;62333;51.980;5.934;2024-03-22T05:18:41;14.50;81.70
38480;DHT22;62333;51.980;5.934;2024-03-22T05:21:06;14.50;81.80
38480;DHT22;62333;51.980;5.934;2024-03-22T05:23:32;14.40;81.90
38480;DHT22;62333;51.980;5.934;2024-03-22T05:25:58;14.40;82.10
38480;DHT22;62333;51.980;5.934;2024-03-22T05:28:25;14.40;82.10
38480;DHT22;62333;51.980;5.934;2024-03-22T05:30:50;14.40;82.20
38480;DHT22;62333;51.980;5.934;2024-03-22T05:33:16;14.40;82.20
38480;DHT22;62333;51.980;5.934;2024-03-22T05:35:42;14.40;82.20
38480;DHT22;62333;51.980;5.934;2024-03-22T05:38:07;14.40;82.20
38480;DHT22;62333;51.980;5.934;2024-03-22T05:40:36;14.40;82.20
38480;DHT22;62333;51.980;5.934;2024-03-22T05:43:04;14.40;82.20
38480;DHT22;62333;51.980;5.934;2024-03-22T05:45:29;14.40;82.20
38480;DHT22;62333;51.980;5.934;2024-03-22T05:47:55;14.40;82.20
38480;DHT22;62333;51.980;5.934;2024-03-22T05:50:21;14.30;82.30
38480;DHT22;62333;51.980;5.934;2024-03-22T05:52:47;14.30;82.30
38480;DHT22;62333;51.980;5.934;2024-03-22T05:55:12;14.40;82.40
38480;DHT22;62333;51.980;5.934;2024-03-22T05:57:38;14.30;82.40
38480;DHT22;62333;51.980;5.934;2024-03-22T06:00:04;14.30;82.40
38480;DHT22;62333;51.980;5.934;2024-03-22T06:02:32;14.30;82.20
38480;DHT22;62333;51.980;5.934;2024-03-22T06:04:58;14.30;82.10
38480;DHT22;62333;51.980;5.934;2024-03-22T06:07:24;14.20;82.00
38480;DHT22;62333;51.980;5.934;2024-03-22T06:09:51;14.20;81.90
38480;DHT22;62333;51.980;5.934;2024-03-22T06:12:17;14.20;81.90
38480;DHT22;62333;51.980;5.934;2024-03-22T06:14:44;14.10;82.50
38480;DHT22;62333;51.980;5.934;2024-03-22T06:17:10;14.10;81.90
38480;DHT22;62333;51.980;5.934;2024-03-22T06:19:37;14.20;82.00
38480;DHT22;62333;51.980;5.934;2024-03-22T06:22:03;14.20;81.80
38480;DHT22;62333;51.980;5.934;2024-03-22T06:24:28;14.20;81.80
38480;DHT22;62333;51.980;5.934;2024-03-22T06:26:54;14.10;81.70
38480;DHT22;62333;51.980;5.934;2024-03-22T06:29:20;14.10;81.90
38480;DHT22;62333;51.980;5.934;2024-03-22T06:31:46;14.10;81.90
38480;DHT22;62333;51.980;5.934;2024-03-22T06:34:12;14.10;81.90
38480;DHT22;62333;51.980;5.934;2024-03-22T06:36:38;14.10;81.80
38480;DHT22;62333;51.980;5.934;2024-03-22T06:39:04;14.10;81.90
38480;DHT22;62333;51.980;5.934;2024-03-22T06:41:32;14.10;81.90
38480;DHT22;62333;51.980;5.934;2024-03-22T06:43:58;14.10;81.90
38480;DHT22;62333;51.980;5.934;2024-03-22T06:46:24;14.10;81.80
38480;DHT22;62333;51.980;5.934;2024-03-22T06:48:50;14.20;81.80
38480;DHT22;62333;51.980;5.934;2024-03-22T06:51:16;14.20;81.70
38480;DHT22;62333;51.980;5.934;2024-03-22T06:53:42;14.20;81.60
38480;DHT22;62333;51.980;5.934;2024-03-22T06:56:08;14.20;81.60
38480;DHT22;62333;51.980;5.934;2024-03-22T06:58:40;14.30;81.50
38480;DHT22;62333;51.980;5.934;2024-03-22T07:01:06;14.30;81.50
38480;DHT22;62333;51.980;5.934;2024-03-22T07:03:31;14.30;81.40
38480;DHT22;62333;51.980;5.934;2024-03-22T07:05:57;14.30;81.40
38480;DHT22;62333;51.980;5.934;2024-03-22T07:08:23;14.30;81.30
38480;DHT22;62333;51.980;5.934;2024-03-22T07:10:50;14.30;81.30
38480;DHT22;62333;51.980;5.934;2024-03-22T07:13:15;14.30;81.20
38480;DHT22;62333;51.980;5.934;2024-03-22T07:15:41;14.30;81.20
38480;DHT22;62333;51.980;5.934;2024-03-22T07:18:08;14.30;81.20
38480;DHT22;62333;51.980;5.934;2024-03-22T07:20:33;14.30;81.20
38480;DHT22;62333;51.980;5.934;2024-03-22T07:22:59;14.30;81.20
38480;DHT22;62333;51.980;5.934;2024-03-22T07:25:25;14.30;81.20
38480;DHT22;62333;51.980;5.934;2024-03-22T07:27:50;14.30;81.20
38480;DHT22;62333;51.980;5.934;2024-03-22T07:30:16;14.40;81.20
38480;DHT22;62333;51.980;5.934;2024-03-22T07:32:42;14.40;81.10
38480;DHT22;62333;51.980;5.934;2024-03-22T07:35:07;14.50;81.10
38480;DHT22;62333;51.980;5.934;2024-03-22T07:37:33;14.50;81.10
38480;DHT22;62333;51.980;5.934;2024-03-22T07:40:03;14.60;81.10
38480;DHT22;62333;51.980;5.934;2024-03-22T07:42:30;14.50;81.00
38480;DHT22;62333;51.980;5.934;2024-03-22T07:44:56;14.50;81.00
38480;DHT22;62333;51.980;5.934;2024-03-22T07:47:22;14.50;80.90
38480;DHT22;62333;51.980;5.934;2024-03-22T07:49:47;14.50;80.90
38480;DHT22;62333;51.980;5.934;2024-03-22T07:52:13;14.50;80.90
38480;DHT22;62333;51.980;5.934;2024-03-22T07:54:39;14.40;80.80
38480;DHT22;62333;51.980;5.934;2024-03-22T07:57:04;14.40;80.80
38480;DHT22;62333;51.980;5.934;2024-03-22T07:59:30;14.40;80.80
38480;DHT22;62333;51.980;5.934;2024-03-22T08:01:56;14.40;80.70
38480;DHT22;62333;51.980;5.934;2024-03-22T08:04:23;14.40;80.70
38480;DHT22;62333;51.980;5.934;2024-03-22T08:06:50;14.40;80.80
38480;DHT22;62333;51.980;5.934;2024-03-22T08:09:16;14.40;80.70
38480;DHT22;62333;51.980;5.934;2024-03-22T08:11:43;14.40;80.70
38480;DHT22;62333;51.980;5.934;2024-03-22T08:14:09;14.40;80.50
38480;DHT22;62333;51.980;5.934;2024-03-22T08:16:34;14.40;80.50
38480;DHT22;62333;51.980;5.934;2024-03-22T08:19:00;14.40;80.40
38480;DHT22;62333;51.980;5.934;2024-03-22T08:21:25;14.40;80.40
38480;DHT22;62333;51.980;5.934;2024-03-22T08:23:52;14.40;80.40
38480;DHT22;62333;51.980;5.934;2024-03-22T08:26:18;14.40;80.50
38480;DHT22;62333;51.980;5.934;2024-03-22T08:28:47;14.40;80.50
38480;DHT22;62333;51.980;5.934;2024-03-22T08:31:13;14.30;80.40
38480;DHT22;62333;51.980;5.934;2024-03-22T08:33:39;14.30;81.10
38480;DHT22;62333;51.980;5.934;2024-03-22T08:36:05;14.30;80.50
38480;DHT22;62333;51.980;5.934;2024-03-22T08:38:31;14.30;80.60
38480;DHT22;62333;51.980;5.934;2024-03-22T08:40:57;14.30;80.60
38480;DHT22;62333;51.980;5.934;2024-03-22T08:43:23;14.30;80.60
38480;DHT22;62333;51.980;5.934;2024-03-22T08:45:51;14.30;80.60
38480;DHT22;62333;51.980;5.934;2024-03-22T08:48:17;14.30;80.50
38480;DHT22;62333;51.980;5.934;2024-03-22T08:50:43;14.30;80.50
38480;DHT22;62333;51.980;5.934;2024-03-22T08:53:09;14.40;80.60
38480;DHT22;62333;51.980;5.934;2024-03-22T08:55:35;14.30;80.50
38480;DHT22;62333;51.980;5.934;2024-03-22T08:58:01;14.30;80.50
38480;DHT22;62333;51.980;5.934;2024-03-22T09:00:26;14.30;80.50
38480;DHT22;62333;51.980;5.934;2024-03-22T09:02:52;14.30;80.60
38480;DHT22;62333;51.980;5.934;2024-03-22T09:05:18;14.30;80.70
38480;DHT22;62333;51.980;5.934;2024-03-22T09:07:44;14.30;80.80
38480;DHT22;62333;51.980;5.934;2024-03-22T09:10:10;14.30;80.90
38480;DHT22;62333;51.980;5.934;2024-03-22T09:12:36;14.20;81.00
38480;DHT22;62333;51.980;5.934;2024-03-22T09:15:01;14.20;81.10
38480;DHT22;62333;51.980;5.934;2024-03-22T09:17:27;14.20;81.20
38480;DHT22;62333;51.980;5.934;2024-03-22T09:19:53;14.20;81.40
38480;DHT22;62333;51.980;5.934;2024-03-22T09:22:19;14.20;81.40
38480;DHT22;62333;51.980;5.934;2024-03-22T09:24:44;14.10;81.50
38480;DHT22;62333;51.980;5.934;2024-03-22T09:27:10;14.20;81.70
38480;DHT22;62333;51.980;5.934;2024-03-22T09:29:37;14.20;81.60
38480;DHT22;62333;51.980;5.934;2024-03-22T09:32:03;14.20;81.80
38480;DHT22;62333;51.980;5.934;2024-03-22T09:34:29;14.20;81.90
38480;DHT22;62333;51.980;5.934;2024-03-22T09:36:55;14.20;81.90
38480;DHT22;62333;51.980;5.934;2024-03-22T09:39:22;14.10;81.90
38480;DHT22;62333;51.980;5.934;2024-03-22T09:41:47;14.10;82.00
38480;DHT22;62333;51.980;5.934;2024-03-22T09:44:14;14.10;82.00
38480;DHT22;62333;51.980;5.934;2024-03-22T09:46:43;14.10;82.00
38480;DHT22;62333;51.980;5.934;2024-03-22T09:49:10;14.10;82.10
38480;DHT22;62333;51.980;5.934;2024-03-22T09:51:43;14.10;82.00
38480;DHT22;62333;51.980;5.934;2024-03-22T09:54:10;14.10;82.10
38480;DHT22;62333;51.980;5.934;2024-03-22T09:56:38;14.10;82.20
38480;DHT22;62333;51.980;5.934;2024-03-22T09:59:05;14.10;82.30
38480;DHT22;62333;51.980;5.934;2024-03-22T10:01:33;14.10;82.90
38480;DHT22;62333;51.980;5.934;2024-03-22T10:03:59;14.20;82.30
38480;DHT22;62333;51.980;5.934;2024-03-22T10:06:25;14.20;82.40
38480;DHT22;62333;51.980;5.934;2024-03-22T10:08:51;14.20;82.20
38480;DHT22;62333;51.980;5.934;2024-03-22T10:11:17;14.20;82.20
38480;DHT22;62333;51.980;5.934;2024-03-22T10:13:43;14.30;82.20
38480;DHT22;62333;51.980;5.934;2024-03-22T10:16:10;14.30;82.20
38480;DHT22;62333;51.980;5.934;2024-03-22T10:18:36;14.20;82.20
38480;DHT22;62333;51.980;5.934;2024-03-22T10:21:03;14.20;82.20
38480;DHT22;62333;51.980;5.934;2024-03-22T10:23:29;14.30;82.50
38480;DHT22;62333;51.980;5.934;2024-03-22T10:25:59;14.20;82.60
38480;DHT22;62333;51.980;5.934;2024-03-22T10:28:25;14.20;83.30
38480;DHT22;62333;51.980;5.934;2024-03-22T10:30:52;14.20;82.70
38480;DHT22;62333;51.980;5.934;2024-03-22T10:33:21;14.20;82.80
38480;DHT22;62333;51.980;5.934;2024-03-22T10:35:54;14.20;82.80
38480;DHT22;62333;51.980;5.934;2024-03-22T10:38:21;14.20;82.80
38480;DHT22;62333;51.980;5.934;2024-03-22T10:40:47;14.20;83.00
38480;DHT22;62333;51.980;5.934;2024-03-22T10:43:14;14.20;83.10
38480;DHT22;62333;51.980;5.934;2024-03-22T10:45:40;14.30;83.20
38480;DHT22;62333;51.980;5.934;2024-03-22T10:48:09;14.30;83.20
38480;DHT22;62333;51.980;5.934;2024-03-22T10:50:38;14.30;83.20
38480;DHT22;62333;51.980;5.934;2024-03-22T10:53:07;14.30;83.30
38480;DHT22;62333;51.980;5.934;2024-03-22T10:55:36;14.30;83.50
38480;DHT22;62333;51.980;5.934;2024-03-22T10:58:03;14.30;83.60
38480;DHT22;62333;51.980;5.934;2024-03-22T11:00:36;14.30;83.70
38480;DHT22;62333;51.980;5.934;2024-03-22T11:03:03;14.30;83.70
38480;DHT22;62333;51.980;5.934;2024-03-22T11:05:29;14.30;83.70
38480;DHT22;62333;51.980;5.934;2024-03-22T11:08:00;14.30;83.80
38480;DHT22;62333;51.980;5.934;2024-03-22T11:10:28;14.20;83.90
38480;DHT22;62333;51.980;5.934;2024-03-22T11:12:55;14.20;84.10
38480;DHT22;62333;51.980;5.934;2024-03-22T11:15:22;14.20;84.30
38480;DHT22;62333;51.980;5.934;2024-03-22T11:17:48;14.20;84.40
38480;DHT22;62333;51.980;5.934;2024-03-22T11:20:15;14.10;84.40
38480;DHT22;62333;51.980;5.934;2024-03-22T11:22:41;14.20;84.60
38480;DHT22;62333;51.980;5.934;2024-03-22T11:25:07;14.20;84.60
38480;DHT22;62333;51.980;5.934;2024-03-22T11:27:32;14.20;84.80
38480;DHT22;62333;51.980;5.934;2024-03-22T11:29:58;14.20;85.00
38480;DHT22;62333;51.980;5.934;2024-03-22T11:32:24;14.10;85.20
38480;DHT22;62333;51.980;5.934;2024-03-22T11:34:50;14.10;85.10
38480;DHT22;62333;51.980;5.934;2024-03-22T11:37:15;14.10;85.30
38480;DHT22;62333;51.980;5.934;2024-03-22T11:39:41;14.10;85.40
38480;DHT22;62333;51.980;5.934;2024-03-22T11:42:08;14.10;85.50
38480;DHT22;62333;51.980;5.934;2024-03-22T11:44:37;14.10;85.60
38480;DHT22;62333;51.980;5.934;2024-03-22T11:47:04;14.10;85.70
38480;DHT22;62333;51.980;5.934;2024-03-22T11:49:30;14.10;85.70
38480;DHT22;62333;51.980;5.934;2024-03-22T11:51:58;14.10;86.00
38480;DHT22;62333;51.980;5.934;2024-03-22T11:54:24;14.10;86.10
38480;DHT22;62333;51.980;5.934;2024-03-22T11:56:50;14.10;86.20
38480;DHT22;62333;51.980;5.934;2024-03-22T11:59:19;14.00;86.30
38480;DHT22;62333;51.980;5.934;2024-03-22T12:01:45;14.10;86.50
38480;DHT22;62333;51.980;5.934;2024-03-22T12:04:11;14.10;86.60
38480;DHT22;62333;51.980;5.934;2024-03-22T12:06:44;14.10;86.60
38480;DHT22;62333;51.980;5.934;2024-03-22T12:09:11;14.10;87.20
38480;DHT22;62333;51.980;5.934;2024-03-22T12:11:39;14.10;86.70
38480;DHT22;62333;51.980;5.934;2024-03-22T12:14:05;14.10;86.80
38480;DHT22;62333;51.980;5.934;2024-03-22T12:16:31;14.20;86.90
38480;DHT22;62333;51.980;5.934;2024-03-22T12:18:57;14.10;87.00
38480;DHT22;62333;51.980;5.934;2024-03-22T12:21:24;14.10;87.00
38480;DHT22;62333;51.980;5.934;2024-03-22T12:23:50;14.20;87.10
38480;DHT22;62333;51.980;5.934;2024-03-22T12:26:15;14.10;87.10
38480;DHT22;62333;51.980;5.934;2024-03-22T12:28:41;14.10;87.20
38480;DHT22;62333;51.980;5.934;2024-03-22T12:31:08;14.20;87.30
38480;DHT22;62333;51.980;5.934;2024-03-22T12:33:33;14.20;87.40
38480;DHT22;62333;51.980;5.934;2024-03-22T12:35:59;14.10;87.50
38480;DHT22;62333;51.980;5.934;2024-03-22T12:38:25;14.20;87.60
38480;DHT22;62333;51.980;5.934;2024-03-22T12:40:51;14.20;87.60
38480;DHT22;62333;51.980;5.934;2024-03-22T12:43:17;14.20;87.60
38480;DHT22;62333;51.980;5.934;2024-03-22T12:45:42;14.20;87.70
38480;DHT22;62333;51.980;5.934;2024-03-22T12:48:08;14.20;87.70
38480;DHT22;62333;51.980;5.934;2024-03-22T12:50:35;14.20;87.70
38480;DHT22;62333;51.980;5.934;2024-03-22T12:53:00;14.20;87.80
38480;DHT22;62333;51.980;5.934;2024-03-22T12:55:26;14.30;87.90
38480;DHT22;62333;51.980;5.934;2024-03-22T12:57:54;14.20;87.90
38480;DHT22;62333;51.980;5.934;2024-03-22T13:00:20;14.30;88.10
38480;DHT22;62333;51.980;5.934;2024-03-22T13:02:46;14.30;88.10
38480;DHT22;62333;51.980;5.934;2024-03-22T13:05:12;14.20;88.10
38480;DHT22;62333;51.980;5.934;2024-03-22T13:07:38;14.30;88.20
38480;DHT22;62333;51.980;5.934;2024-03-22T13:10:04;14.30;88.20
38480;DHT22;62333;51.980;5.934;2024-03-22T13:12:31;14.30;88.20
38480;DHT22;62333;51.980;5.934;2024-03-22T13:14:59;14.30;88.30
38480;DHT22;62333;51.980;5.934;2024-03-22T13:17:25;14.30;88.50
38480;DHT22;62333;51.980;5.934;2024-03-22T13:19:50;14.20;88.40
38480;DHT22;62333;51.980;5.934;2024-03-22T13:22:16;14.30;88.60
38480;DHT22;62333;51.980;5.934;2024-03-22T13:24:44;14.30;88.50
38480;DHT22;62333;51.980;5.934;2024-03-22T13:27:10;14.40;88.60
38480;DHT22;62333;51.980;5.934;2024-03-22T13:29:38;14.40;88.50
38480;DHT22;62333;51.980;5.934;2024-03-22T13:32:04;14.40;88.60
38480;DHT22;62333;51.980;5.934;2024-03-22T13:34:31;14.40;88.70
38480;DHT22;62333;51.980;5.934;2024-03-22T13:36:56;14.40;88.70
38480;DHT22;62333;51.980;5.934;2024-03-22T13:39:22;14.50;88.70
38480;DHT22;62333;51.980;5.934;2024-03-22T13:41:48;14.50;88.60
38480;DHT22;62333;51.980;5.934;2024-03-22T13:44:14;14.50;88.60
38480;DHT22;62333;51.980;5.934;2024-03-22T13:46:40;14.50;88.60
38480;DHT22;62333;51.980;5.934;2024-03-22T13:49:14;14.50;88.60
38480;DHT22;62333;51.980;5.934;2024-03-22T13:51:43;14.50;88.50
38480;DHT22;62333;51.980;5.934;2024-03-22T13:54:09;14.50;88.70
38480;DHT22;62333;51.980;5.934;2024-03-22T13:56:35;14.50;88.70
38480;DHT22;62333;51.980;5.934;2024-03-22T13:59:01;14.50;88.70
38480;DHT22;62333;51.980;5.934;2024-03-22T14:01:27;14.50;88.60
38480;DHT22;62333;51.980;5.934;2024-03-22T14:03:53;14.50;88.40
38480;DHT22;62333;51.980;5.934;2024-03-22T14:06:19;14.50;88.40
38480;DHT22;62333;51.980;5.934;2024-03-22T14:08:44;14.50;88.40
38480;DHT22;62333;51.980;5.934;2024-03-22T14:11:10;14.40;88.30
38480;DHT22;62333;51.980;5.934;2024-03-22T14:13:36;14.50;88.40
38480;DHT22;62333;51.980;5.934;2024-03-22T14:16:01;14.50;88.30
38480;DHT22;62333;51.980;5.934;2024-03-22T14:18:27;14.50;88.40
38480;DHT22;62333;51.980;5.934;2024-03-22T14:20:53;14.50;88.30
38480;DHT22;62333;51.980;5.934;2024-03-22T14:23:18;14.60;88.30
38480;DHT22;62333;51.980;5.934;2024-03-22T14:25:45;14.60;88.20
38480;DHT22;62333;51.980;5.934;2024-03-22T14:28:13;14.60;88.20
38480;DHT22;62333;51.980;5.934;2024-03-22T14:30:38;14.60;88.30
38480;DHT22;62333;51.980;5.934;2024-03-22T14:33:04;14.60;88.40
38480;DHT22;62333;51.980;5.934;2024-03-22T14:35:30;14.50;88.30
38480;DHT22;62333;51.980;5.934;2024-03-22T14:37:55;14.60;88.40
38480;DHT22;62333;51.980;5.934;2024-03-22T14:40:21;14.70;88.30
38480;DHT22;62333;51.980;5.934;2024-03-22T14:42:47;14.70;88.20
38480;DHT22;62333;51.980;5.934;2024-03-22T14:45:12;14.70;88.20
38480;DHT22;62333;51.980;5.934;2024-03-22T14:47:38;14.70;88.20
38480;DHT22;62333;51.980;5.934;2024-03-22T14:50:05;14.70;88.10
38480;DHT22;62333;51.980;5.934;2024-03-22T14:52:31;14.70;88.00
38480;DHT22;62333;51.980;5.934;2024-03-22T14:54:56;14.70;87.90
38480;DHT22;62333;51.980;5.934;2024-03-22T14:57:22;14.70;87.70
38480;DHT22;62333;51.980;5.934;2024-03-22T14:59:47;14.70;87.50
38480;DHT22;62333;51.980;5.934;2024-03-22T15:02:14;14.70;87.50
38480;DHT22;62333;51.980;5.934;2024-03-22T15:04:40;14.60;87.30
38480;DHT22;62333;51.980;5.934;2024-03-22T15:07:05;14.60;87.20
38480;DHT22;62333;51.980;5.934;2024-03-22T15:09:31;14.60;87.20
38480;DHT22;62333;51.980;5.934;2024-03-22T15:11:57;14.60;87.20
38480;DHT22;62333;51.980;5.934;2024-03-22T15:14:27;14.60;87.00
38480;DHT22;62333;51.980;5.934;2024-03-22T15:16:55;14.70;87.00
38480;DHT22;62333;51.980;5.934;2024-03-22T15:19:20;14.60;86.90
38480;DHT22;62333;51.980;5.934;2024-03-22T15:21:47;14.60;86.70